createdAt,value
2023-09-16T00:01:34.753Z,7.20
2023-09-16T00:04:43.501Z,7.63
2023-09-16T00:07:52.408Z,6.90
2023-09-16T00:11:01.840Z,6.43
2023-09-16T00:14:11.745Z,6.43
2023-09-16T00:17:20.625Z,6.83
2023-09-16T00:20:29.652Z,7.47
2023-09-16T00:23:38.186Z,6.23
2023-09-16T00:26:46.714Z,7.10
2023-09-16T00:29:56.709Z,6.57
2023-09-16T00:33:06.617Z,6.53
2023-09-16T00:36:15.258Z,6.77
2023-09-16T00:39:24.260Z,6.60
2023-09-16T00:42:32.894Z,6.63
2023-09-16T00:45:43.614Z,7.27
2023-09-16T00:48:52.593Z,7.53
2023-09-16T00:52:01.488Z,8.60
2023-09-16T00:55:11.144Z,8.27
2023-09-16T00:58:19.995Z,8.43
2023-09-16T01:01:31.177Z,7.87
2023-09-16T01:04:42.139Z,8.03
2023-09-16T01:07:51.510Z,7.53
2023-09-16T01:11:00.418Z,7.03
2023-09-16T01:14:12.250Z,6.87
2023-09-16T01:17:33.662Z,6.60
2023-09-16T01:20:43.215Z,7.40
2023-09-16T01:24:06.755Z,7.00
2023-09-16T01:27:16.730Z,6.20
2023-09-16T01:30:28.814Z,6.33
2023-09-16T01:33:42.363Z,6.30
2023-09-16T01:36:53.642Z,7.33
2023-09-16T01:40:11.556Z,7.33
2023-09-16T01:43:22.780Z,7.37
2023-09-16T01:46:31.564Z,7.13
2023-09-16T01:49:40.064Z,7.23
2023-09-16T01:52:49.876Z,6.87
2023-09-16T01:55:58.433Z,6.63
2023-09-16T01:59:08.666Z,7.33
2023-09-16T02:02:17.369Z,6.90
2023-09-16T02:05:26.264Z,6.67
2023-09-16T02:08:38.108Z,7.37
2023-09-16T02:11:46.722Z,6.33
2023-09-16T02:14:57.503Z,7.43
2023-09-16T02:18:07.320Z,7.03
2023-09-16T02:21:16.423Z,7.03
2023-09-16T02:24:55.942Z,6.97
2023-09-16T02:28:05.146Z,7.73
2023-09-16T02:31:16.737Z,9.67
2023-09-16T02:34:25.503Z,9.17
2023-09-16T02:37:34.266Z,11.40
2023-09-16T02:40:43.441Z,9.57
2023-09-16T02:43:54.207Z,11.60
2023-09-16T02:47:04.737Z,11.63
2023-09-16T02:50:13.847Z,11.13
2023-09-16T02:53:22.961Z,10.67
2023-09-16T02:56:32.122Z,10.90
2023-09-16T02:59:41.264Z,10.10
2023-09-16T03:02:51.647Z,9.47
2023-09-16T03:06:00.538Z,8.30
2023-09-16T03:09:09.424Z,8.50
2023-09-16T03:12:18.413Z,7.57
2023-09-16T03:15:29.015Z,7.87
2023-09-16T03:18:39.259Z,7.13
2023-09-16T03:21:47.949Z,7.57
2023-09-16T03:24:56.836Z,6.47
2023-09-16T03:28:06.058Z,7.27
2023-09-16T03:31:15.693Z,6.63
2023-09-16T03:34:26.324Z,6.53
2023-09-16T03:37:35.282Z,6.87
2023-09-16T03:40:46.279Z,7.93
2023-09-16T03:43:55.162Z,7.03
2023-09-16T03:47:07.789Z,7.17
2023-09-16T03:50:20.581Z,7.10
2023-09-16T03:53:40.210Z,6.83
2023-09-16T03:56:51.410Z,6.87
2023-09-16T04:00:00.473Z,6.23
2023-09-16T04:03:10.412Z,5.50
2023-09-16T04:06:21.833Z,7.10
2023-09-16T04:09:30.681Z,6.00
2023-09-16T04:12:40.602Z,6.40
2023-09-16T04:15:49.580Z,6.53
2023-09-16T04:18:59.585Z,6.80
2023-09-16T04:22:10.543Z,7.87
2023-09-16T04:25:19.829Z,7.53
2023-09-16T04:28:28.965Z,7.93
2023-09-16T04:31:37.777Z,7.33
2023-09-16T04:34:46.396Z,8.30
2023-09-16T04:37:56.779Z,7.53
2023-09-16T04:41:06.681Z,7.43
2023-09-16T04:44:18.111Z,6.20
2023-09-16T04:47:29.394Z,6.13
2023-09-16T04:50:42.194Z,6.23
2023-09-16T04:53:53.408Z,6.17
2023-09-16T04:57:04.773Z,5.93
2023-09-16T05:00:14.993Z,6.07
2023-09-16T05:03:23.986Z,6.13
2023-09-16T05:06:32.703Z,5.60
2023-09-16T05:09:42.721Z,5.97
2023-09-16T05:12:51.794Z,5.37
2023-09-16T05:16:03.060Z,6.07
2023-09-16T05:19:12.013Z,5.83
2023-09-16T05:22:20.775Z,6.00
2023-09-16T05:25:31.133Z,6.10
2023-09-16T05:28:40.527Z,6.27
2023-09-16T05:31:51.277Z,5.77
2023-09-16T05:35:00.449Z,5.83
2023-09-16T05:38:09.792Z,4.93
2023-09-16T05:41:20.192Z,5.00
2023-09-16T05:44:30.947Z,5.30
2023-09-16T05:47:42.085Z,4.57
2023-09-16T05:50:58.496Z,5.53
2023-09-16T05:54:08.577Z,5.33
2023-09-16T05:57:20.053Z,5.80
2023-09-16T06:00:30.589Z,6.07
2023-09-16T06:03:39.537Z,5.63
2023-09-16T06:06:50.392Z,5.87
2023-09-16T06:09:59.871Z,5.57
2023-09-16T06:13:11.429Z,5.90
2023-09-16T06:16:20.704Z,6.90
2023-09-16T06:19:31.217Z,7.13
2023-09-16T06:22:41.295Z,7.00
2023-09-16T06:25:51.224Z,7.27
2023-09-16T06:29:02.027Z,6.80
2023-09-16T06:32:11.605Z,6.90
2023-09-16T06:35:20.340Z,5.67
2023-09-16T06:38:29.730Z,6.37
2023-09-16T06:41:38.496Z,6.20
2023-09-16T06:44:57.166Z,6.83
2023-09-16T06:48:09.856Z,4.73
2023-09-16T06:51:18.570Z,4.53
2023-09-16T06:54:27.136Z,3.80
2023-09-16T06:57:35.716Z,3.60
2023-09-16T07:00:45.855Z,3.93
2023-09-16T07:03:54.622Z,3.53
2023-09-16T07:07:03.313Z,3.27
2023-09-16T07:10:12.573Z,3.90
2023-09-16T07:13:21.237Z,3.63
2023-09-16T07:16:41.591Z,3.23
2023-09-16T07:19:51.351Z,3.60
2023-09-16T07:23:00.284Z,3.30
2023-09-16T07:26:09.294Z,3.00
2023-09-16T07:29:19.531Z,3.10
2023-09-16T07:32:30.234Z,2.93
2023-09-16T07:35:38.932Z,2.30
2023-09-16T07:38:47.634Z,2.87
2023-09-16T07:41:56.922Z,2.93
2023-09-16T07:45:05.891Z,2.47
2023-09-16T07:48:15.892Z,2.60
2023-09-16T07:51:24.494Z,2.80
2023-09-16T07:54:33.750Z,2.70
2023-09-16T07:57:42.440Z,2.93
2023-09-16T08:00:51.744Z,2.60
2023-09-16T08:04:01.999Z,2.60
2023-09-16T08:07:10.753Z,2.93
2023-09-16T08:10:21.478Z,2.97
2023-09-16T08:13:30.062Z,2.93
2023-09-16T08:16:38.992Z,2.83
2023-09-16T08:19:48.999Z,2.63
2023-09-16T08:22:58.142Z,3.00
2023-09-16T08:26:07.473Z,3.03
2023-09-16T08:29:16.102Z,3.00
2023-09-16T08:32:27.402Z,2.87
2023-09-16T08:35:37.618Z,2.57
2023-09-16T08:38:46.322Z,2.80
2023-09-16T08:42:01.359Z,2.30
2023-09-16T08:45:15.075Z,2.63
2023-09-16T08:48:27.515Z,2.67
2023-09-16T08:51:41.252Z,2.30
2023-09-16T08:54:51.904Z,2.63
2023-09-16T08:58:11.167Z,2.23
2023-09-16T09:01:20.306Z,2.00
2023-09-16T09:04:29.563Z,2.80
2023-09-16T09:07:42.328Z,2.47
2023-09-16T09:10:51.155Z,2.40
2023-09-16T09:14:01.515Z,2.60
2023-09-16T09:17:12.521Z,2.93
2023-09-16T09:20:24.039Z,2.13
2023-09-16T09:23:34.033Z,1.90
2023-09-16T09:26:42.823Z,2.27
2023-09-16T09:29:51.415Z,2.20
2023-09-16T09:33:01.305Z,2.60
2023-09-16T09:36:14.018Z,2.70
2023-09-16T09:39:24.041Z,2.27
2023-09-16T09:42:32.580Z,2.13
2023-09-16T09:45:44.070Z,2.00
2023-09-16T09:48:52.889Z,2.00
2023-09-16T09:52:02.174Z,2.30
2023-09-16T09:55:12.551Z,2.00
2023-09-16T09:58:21.224Z,2.03
2023-09-16T10:01:35.302Z,2.10
2023-09-16T10:04:44.057Z,2.10
2023-09-16T10:07:54.118Z,2.00
2023-09-16T10:11:04.271Z,2.30
2023-09-16T10:14:12.963Z,2.70
2023-09-16T10:17:24.300Z,2.30
2023-09-16T10:20:37.113Z,2.20
2023-09-16T10:23:47.798Z,2.00
2023-09-16T10:26:59.666Z,2.40
2023-09-16T10:30:10.048Z,2.47
2023-09-16T10:33:19.078Z,2.30
2023-09-16T10:36:28.709Z,2.13
2023-09-16T10:39:39.845Z,2.17
2023-09-16T10:42:52.492Z,2.20
2023-09-16T10:46:02.382Z,2.60
2023-09-16T10:49:11.042Z,1.90
2023-09-16T10:52:27.172Z,2.37
2023-09-16T10:55:40.879Z,2.03
2023-09-16T10:58:52.979Z,2.47
2023-09-16T11:02:08.806Z,2.40
2023-09-16T11:05:17.552Z,2.20
2023-09-16T11:08:27.117Z,2.20
2023-09-16T11:11:37.184Z,2.03
2023-09-16T11:14:48.395Z,2.30
2023-09-16T11:18:03.889Z,2.30
2023-09-16T11:21:16.608Z,2.00
2023-09-16T11:24:26.277Z,2.20
2023-09-16T11:27:35.998Z,2.60
2023-09-16T11:30:56.781Z,2.03
2023-09-16T11:34:10.535Z,2.30
2023-09-16T11:37:25.829Z,2.30
2023-09-16T11:40:35.943Z,2.43
2023-09-16T11:43:45.000Z,2.00
2023-09-16T11:46:56.575Z,2.00
2023-09-16T11:50:10.218Z,2.00
2023-09-16T11:53:19.658Z,1.97
2023-09-16T11:56:30.948Z,2.23
2023-09-16T11:59:39.973Z,2.00
2023-09-16T12:02:51.292Z,2.20
2023-09-16T12:06:00.703Z,2.37
2023-09-16T12:09:11.000Z,1.93
2023-09-16T12:12:20.591Z,2.13
2023-09-16T12:15:32.583Z,1.70
2023-09-16T12:18:43.081Z,1.57
2023-09-16T12:21:52.647Z,1.70
2023-09-16T12:25:01.493Z,1.30
2023-09-16T12:28:12.279Z,1.60
2023-09-16T12:31:25.446Z,1.50
2023-09-16T12:34:36.420Z,1.43
2023-09-16T12:37:46.434Z,1.80
2023-09-16T12:40:55.579Z,1.70
2023-09-16T12:44:04.490Z,1.90
2023-09-16T12:47:15.182Z,1.57
2023-09-16T12:50:27.388Z,1.67
2023-09-16T12:53:36.249Z,1.87
2023-09-16T12:56:50.683Z,2.17
2023-09-16T13:00:04.428Z,1.87
2023-09-16T13:03:14.170Z,1.73
2023-09-16T13:06:24.941Z,1.57
2023-09-16T13:09:33.945Z,2.00
2023-09-16T13:12:43.932Z,2.20
2023-09-16T13:15:55.103Z,2.00
2023-09-16T13:19:04.330Z,1.80
2023-09-16T13:22:15.539Z,1.70
2023-09-16T13:25:33.706Z,1.63
2023-09-16T13:28:56.274Z,1.67
2023-09-16T13:32:05.911Z,1.40
2023-09-16T13:35:15.186Z,1.50
2023-09-16T13:38:25.361Z,1.73
2023-09-16T13:41:34.174Z,1.50
2023-09-16T13:44:47.527Z,1.70
2023-09-16T13:48:14.482Z,2.03
2023-09-16T13:51:23.492Z,2.10
2023-09-16T13:54:34.213Z,1.97
2023-09-16T13:57:42.901Z,2.87
2023-09-16T14:00:51.871Z,3.10
2023-09-16T14:04:05.055Z,2.57
2023-09-16T14:07:13.743Z,2.40
2023-09-16T14:10:26.310Z,2.47
2023-09-16T14:13:35.447Z,2.00
2023-09-16T14:16:45.402Z,2.40
2023-09-16T14:19:54.811Z,2.90
2023-09-16T14:23:06.331Z,2.20
2023-09-16T14:26:16.742Z,2.60
2023-09-16T14:29:25.629Z,2.77
2023-09-16T14:32:34.269Z,2.33
2023-09-16T14:35:44.029Z,2.50
2023-09-16T14:38:54.052Z,2.60
2023-09-16T14:42:05.464Z,2.63
2023-09-16T14:45:14.989Z,2.47
2023-09-16T14:48:23.792Z,2.53
2023-09-16T14:51:36.471Z,2.27
2023-09-16T14:54:45.976Z,2.90
2023-09-16T14:57:56.447Z,2.30
2023-09-16T15:01:07.229Z,2.53
2023-09-16T15:04:18.131Z,2.70
2023-09-16T15:11:50.931Z,2.67
2023-09-16T15:15:02.840Z,2.60
2023-09-16T15:18:19.275Z,3.10
2023-09-16T15:21:29.244Z,2.83
2023-09-16T15:24:50.824Z,2.80
2023-09-16T15:28:04.711Z,2.67
2023-09-16T15:31:15.837Z,2.40
2023-09-16T15:34:28.541Z,2.50
2023-09-16T15:37:40.604Z,2.07
2023-09-16T15:40:52.787Z,2.37
2023-09-16T15:44:03.903Z,2.63
2023-09-16T15:47:15.311Z,2.47
2023-09-16T15:50:25.069Z,2.47
2023-09-16T15:53:34.784Z,2.60
2023-09-16T15:56:44.472Z,2.60
2023-09-16T15:59:58.557Z,2.50
2023-09-16T16:03:09.743Z,2.83
2023-09-16T16:06:28.279Z,3.00
2023-09-16T16:09:45.382Z,2.23
2023-09-16T16:12:55.912Z,3.17
2023-09-16T16:16:05.724Z,3.33
2023-09-16T16:19:20.283Z,3.00
2023-09-16T16:22:29.871Z,2.97
2023-09-16T16:25:45.593Z,3.00
2023-09-16T16:28:58.337Z,2.90
2023-09-16T16:32:17.137Z,3.70
2023-09-16T16:35:27.509Z,2.87
2023-09-16T16:38:36.472Z,3.37
2023-09-16T16:41:45.733Z,2.50
2023-09-16T16:44:54.391Z,2.70
2023-09-16T16:48:03.154Z,3.30
2023-09-16T16:51:14.823Z,3.13
2023-09-16T16:54:23.824Z,2.80
2023-09-16T16:57:32.760Z,3.50
2023-09-16T17:00:42.008Z,3.10
2023-09-16T17:03:51.016Z,3.10
2023-09-16T17:07:01.905Z,3.60
2023-09-16T17:10:11.063Z,3.20
2023-09-16T17:13:19.982Z,3.33
2023-09-16T17:16:28.737Z,3.00
2023-09-16T17:19:37.680Z,3.10
2023-09-16T17:22:47.831Z,3.10
2023-09-16T17:25:57.140Z,3.37
2023-09-16T17:29:05.835Z,3.07
2023-09-16T17:32:14.513Z,3.07
2023-09-16T17:35:23.615Z,2.90
2023-09-16T17:38:34.770Z,2.87
2023-09-16T17:41:44.169Z,3.23
2023-09-16T17:44:52.990Z,3.10
2023-09-16T17:48:01.732Z,3.30
2023-09-16T17:51:11.313Z,3.77
2023-09-16T17:54:21.202Z,3.67
2023-09-16T17:57:29.861Z,3.70
2023-09-16T18:00:39.257Z,3.70
2023-09-16T18:03:48.910Z,3.83
2023-09-16T18:06:57.555Z,4.03
2023-09-16T18:10:11.496Z,3.80
2023-09-16T18:13:21.395Z,3.73
2023-09-16T18:16:32.254Z,4.10
2023-09-16T18:19:40.881Z,3.50
2023-09-16T18:22:49.438Z,3.93
2023-09-16T18:25:59.479Z,4.00
2023-09-16T18:29:08.368Z,4.10
2023-09-16T18:32:17.252Z,4.10
2023-09-16T18:35:27.745Z,4.40
2023-09-16T18:38:36.829Z,4.87
2023-09-16T18:41:46.960Z,4.53
2023-09-16T18:44:55.578Z,5.23
2023-09-16T18:48:05.083Z,5.07
2023-09-16T18:51:14.391Z,5.30
2023-09-16T18:54:23.032Z,5.63
2023-09-16T18:57:33.153Z,6.33
2023-09-16T19:00:45.818Z,6.07
2023-09-16T19:03:54.964Z,6.23
2023-09-16T19:07:04.724Z,6.27
2023-09-16T19:10:16.426Z,5.77
2023-09-16T19:13:27.037Z,5.53
2023-09-16T19:16:38.236Z,6.10
2023-09-16T19:19:46.983Z,5.90
2023-09-16T19:22:55.762Z,5.83
2023-09-16T19:26:06.851Z,5.53
2023-09-16T19:29:16.984Z,6.30
2023-09-16T19:32:25.980Z,5.60
2023-09-16T19:35:34.737Z,6.23
2023-09-16T19:38:43.794Z,5.67
2023-09-16T19:41:52.402Z,4.90
2023-09-16T19:45:03.571Z,4.90
2023-09-16T19:48:12.848Z,4.20
2023-09-16T19:51:22.741Z,4.10
2023-09-16T19:54:32.410Z,4.40
2023-09-16T19:57:47.496Z,4.40
2023-09-16T20:01:02.403Z,4.60
2023-09-16T20:04:11.612Z,4.97
2023-09-16T20:07:20.626Z,5.10
2023-09-16T20:10:31.146Z,4.80
2023-09-16T20:13:41.890Z,4.53
2023-09-16T20:16:54.738Z,4.50
2023-09-16T20:20:03.558Z,4.60
2023-09-16T20:23:14.034Z,4.80
2023-09-16T20:26:27.996Z,5.10
2023-09-16T20:29:37.955Z,4.83
2023-09-16T20:32:48.989Z,5.00
2023-09-16T20:35:58.235Z,4.67
2023-09-16T20:39:08.080Z,3.90
2023-09-16T20:42:20.278Z,5.20
2023-09-16T20:45:30.670Z,4.70
2023-09-16T20:48:41.623Z,4.47
2023-09-16T20:51:52.529Z,4.53
2023-09-16T20:55:01.408Z,4.53
2023-09-16T20:58:13.487Z,4.53
2023-09-16T21:01:23.818Z,4.10
2023-09-16T21:04:35.083Z,5.10
2023-09-16T21:07:44.747Z,4.80
2023-09-16T21:10:53.742Z,4.03
2023-09-16T21:14:05.006Z,4.23
2023-09-16T21:17:16.015Z,4.23
2023-09-16T21:20:28.835Z,4.30
2023-09-16T21:23:37.635Z,4.80
2023-09-16T21:26:46.643Z,4.43
2023-09-16T21:29:55.487Z,4.33
2023-09-16T21:33:09.427Z,4.27
2023-09-16T21:36:19.721Z,4.43
2023-09-16T21:39:30.634Z,4.10
2023-09-16T21:42:39.520Z,4.60
2023-09-16T21:45:49.180Z,4.10
2023-09-16T21:49:01.081Z,4.70
2023-09-16T21:52:11.157Z,4.47
2023-09-16T21:55:19.840Z,3.93
2023-09-16T21:58:28.498Z,3.73
2023-09-16T22:01:38.468Z,4.40
2023-09-16T22:04:47.220Z,4.43
2023-09-16T22:07:57.340Z,4.17
2023-09-16T22:11:05.841Z,4.37
2023-09-16T22:14:14.342Z,4.30
2023-09-16T22:17:22.867Z,4.27
2023-09-16T22:20:31.459Z,4.63
2023-09-16T22:23:41.405Z,4.60
2023-09-16T22:26:50.135Z,4.43
2023-09-16T22:29:59.085Z,5.00
2023-09-16T22:33:07.777Z,4.17
2023-09-16T22:36:16.442Z,4.23
2023-09-16T22:39:26.349Z,4.13
2023-09-16T22:42:34.974Z,4.27
2023-09-16T22:45:43.501Z,5.10
2023-09-16T22:48:51.975Z,4.23
2023-09-16T22:52:00.536Z,3.87
2023-09-16T22:55:10.877Z,4.37
2023-09-16T22:58:19.448Z,4.17
2023-09-16T23:01:28.056Z,4.10
2023-09-16T23:04:36.783Z,4.60
2023-09-16T23:07:45.396Z,4.43
2023-09-16T23:10:55.286Z,3.77
2023-09-16T23:14:03.796Z,4.07
2023-09-16T23:17:12.979Z,4.53
2023-09-16T23:20:21.774Z,4.20
2023-09-16T23:23:30.471Z,4.33
2023-09-16T23:26:40.956Z,4.50
2023-09-16T23:29:49.483Z,4.97
2023-09-16T23:32:58.041Z,4.37
2023-09-16T23:36:06.719Z,4.10
2023-09-16T23:39:15.440Z,3.57
2023-09-16T23:42:25.316Z,4.10
2023-09-16T23:45:33.940Z,4.10
2023-09-16T23:48:43.347Z,4.00
2023-09-16T23:51:52.617Z,4.20
2023-09-16T23:55:01.498Z,4.20
2023-09-16T23:58:11.365Z,4.10
